NMSU Main Campus Data

Date Time Air Temperature Relative Humidity Wind Speed Wind Dir. Rain Solar Radiation Soil Temperature
2m 2m 3m 3m 10cm
US/Mountain F % MPH deg in MJ/m^2 F
max min avg max min avg max avg avg max min avg
2019-12-14 01:00:00 44.3 42.7 43.5 76.8 71.0 73.8 2.8 0.7 167.7 0.00 0.0000000 51.1 50.5 50.8
2019-12-14 02:00:00 43.2 41.9 42.5 79.9 74.8 76.5 2.6 0.6 194.9 0.00 0.0000000 50.5 49.8 50.1
2019-12-14 03:00:00 42.9 40.9 41.7 80.5 75.2 77.7 3.7 1.8 192.4 0.00 0.0000000 49.8 49.2 49.5
2019-12-14 04:00:00 41.0 39.5 40.3 82.4 78.2 80.8 3.3 1.2 191.3 0.00 0.0000000 49.2 48.7 48.9
2019-12-14 05:00:00 39.6 38.6 39.2 87.0 81.8 83.9 3.5 1.6 208.6 0.00 0.0000000 48.7 48.1 48.4
2019-12-14 06:00:00 40.1 38.1 39.0 86.8 81.2 84.3 2.8 1.3 194.4 0.00 0.0000000 48.1 47.6 47.8
2019-12-14 07:00:00 38.6 37.7 38.1 87.1 84.0 86.2 2.6 0.8 183.1 0.00 0.0024998 47.6 47.0 47.3
2019-12-14 08:00:00 43.9 38.4 41.5 84.8 69.8 76.4 4.9 1.5 202.7 0.00 0.2206304 47.0 46.6 46.8
2019-12-14 09:00:00 51.8 43.5 48.3 71.6 57.5 63.5 5.3 1.8 179.0 0.00 0.8299768 46.6 46.3 46.4
2019-12-14 10:00:00 57.5 51.5 55.6 60.6 43.9 48.1 6.0 2.5 166.5 0.00 1.3936090 46.7 46.3 46.4
2019-12-14 11:00:00 63.3 56.4 60.9 51.8 35.6 39.0 9.2 4.6 227.6 0.00 1.8135010 47.9 46.7 47.2
2019-12-14 12:00:00 65.9 63.0 64.5 40.3 30.6 33.9 14.4 5.9 226.5 0.00 2.0337030 49.6 47.9 48.7
2019-12-14 13:00:00 67.4 65.1 66.3 32.5 29.2 30.4 16.5 9.5 245.3 0.00 2.0470340 51.4 49.6 50.5
2019-12-14 14:00:00 68.3 66.6 67.5 30.4 26.0 28.1 18.9 10.2 245.1 0.00 1.8449800 53.2 51.4 52.3
2019-12-14 15:00:00 69.3 67.7 68.5 27.6 23.7 25.3 16.4 10.0 246.3 0.00 1.6154940 54.7 53.2 54.0
2019-12-14 16:00:00 68.9 67.5 68.4 28.1 24.8 26.2 16.9 9.6 249.3 0.00 1.1373910 55.7 54.7 55.2
2019-12-14 17:00:00 68.2 64.4 66.5 32.4 27.1 29.4 11.0 5.1 261.1 0.00 0.2639237 56.3 55.7 56.0
2019-12-14 18:00:00 64.8 60.4 62.6 39.1 31.6 35.2 4.7 1.7 105.2 0.00 0.0035618 56.4 56.2 56.3
2019-12-14 19:00:00 61.7 58.9 60.4 42.8 36.4 39.3 3.8 1.6 105.3 0.00 0.0000000 56.2 55.8 56.0
2019-12-14 20:00:00 59.4 53.7 56.1 54.2 41.1 48.0 2.8 0.6 135.3 0.00 0.0000000 55.8 55.1 55.5
2019-12-14 21:00:00 53.9 50.5 52.4 62.0 51.5 55.9 1.7 0.5 110.5 0.00 0.0000000 55.1 54.4 54.8
2019-12-14 22:00:00 51.0 48.2 49.5 69.9 59.8 66.2 4.0 1.5 181.0 0.00 0.0000000 54.4 53.7 54.1
2019-12-14 23:00:00 48.5 46.6 47.4 73.6 68.5 70.9 3.1 1.1 175.5 0.00 0.0000000 53.7 53.0 53.4
2019-12-15 00:00:00 47.3 45.4 46.3 77.2 70.3 73.9 4.2 1.1 173.8 0.00 0.0000000 53.0 52.4 52.7

Data is courtesy of the NM Climate Center. DO NOT USE IN LEGAL PROCEEDINGS.